sensor_id;sensor_type;location;lat;lon;timestamp;P1;durP1;ratioP1;P2;durP2;ratioP2
43070;SDS011;36278;47.952;21.714;2023-04-24T00:01:09;11.90;;;7.27;;
43070;SDS011;36278;47.952;21.714;2023-04-24T00:03:35;13.83;;;6.73;;
43070;SDS011;36278;47.952;21.714;2023-04-24T00:06:01;9.93;;;6.80;;
43070;SDS011;36278;47.952;21.714;2023-04-24T00:08:27;10.53;;;6.93;;
43070;SDS011;36278;47.952;21.714;2023-04-24T00:10:53;12.10;;;7.10;;
43070;SDS011;36278;47.952;21.714;2023-04-24T00:13:18;9.40;;;6.50;;
43070;SDS011;36278;47.952;21.714;2023-04-24T00:15:44;10.37;;;7.03;;
43070;SDS011;36278;47.952;21.714;2023-04-24T00:18:09;13.03;;;7.03;;
43070;SDS011;36278;47.952;21.714;2023-04-24T00:20:34;16.17;;;7.60;;
43070;SDS011;36278;47.952;21.714;2023-04-24T00:23:04;12.27;;;7.03;;
43070;SDS011;36278;47.952;21.714;2023-04-24T00:25:30;13.70;;;7.10;;
43070;SDS011;36278;47.952;21.714;2023-04-24T00:27:55;10.93;;;7.00;;
43070;SDS011;36278;47.952;21.714;2023-04-24T00:30:21;11.03;;;7.63;;
43070;SDS011;36278;47.952;21.714;2023-04-24T00:32:46;12.77;;;7.50;;
43070;SDS011;36278;47.952;21.714;2023-04-24T00:35:11;11.00;;;7.53;;
43070;SDS011;36278;47.952;21.714;2023-04-24T00:37:37;9.30;;;6.97;;
43070;SDS011;36278;47.952;21.714;2023-04-24T00:40:03;11.17;;;7.20;;
43070;SDS011;36278;47.952;21.714;2023-04-24T00:42:28;15.60;;;7.00;;
43070;SDS011;36278;47.952;21.714;2023-04-24T00:44:54;8.13;;;6.37;;
43070;SDS011;36278;47.952;21.714;2023-04-24T00:47:21;11.77;;;6.73;;
43070;SDS011;36278;47.952;21.714;2023-04-24T00:49:47;11.83;;;7.90;;
43070;SDS011;36278;47.952;21.714;2023-04-24T00:52:12;10.33;;;7.23;;
43070;SDS011;36278;47.952;21.714;2023-04-24T00:54:42;11.67;;;7.20;;
43070;SDS011;36278;47.952;21.714;2023-04-24T00:57:11;10.00;;;6.87;;
43070;SDS011;36278;47.952;21.714;2023-04-24T00:59:38;10.50;;;6.93;;
43070;SDS011;36278;47.952;21.714;2023-04-24T01:02:06;9.63;;;7.00;;
43070;SDS011;36278;47.952;21.714;2023-04-24T01:04:32;10.50;;;6.87;;
43070;SDS011;36278;47.952;21.714;2023-04-24T01:06:58;13.07;;;8.17;;
43070;SDS011;36278;47.952;21.714;2023-04-24T01:09:23;14.77;;;7.50;;
43070;SDS011;36278;47.952;21.714;2023-04-24T01:11:50;10.77;;;7.83;;
43070;SDS011;36278;47.952;21.714;2023-04-24T01:14:16;11.47;;;8.40;;
43070;SDS011;36278;47.952;21.714;2023-04-24T01:16:41;14.50;;;8.13;;
43070;SDS011;36278;47.952;21.714;2023-04-24T01:19:07;13.30;;;7.10;;
43070;SDS011;36278;47.952;21.714;2023-04-24T01:21:36;13.50;;;8.23;;
43070;SDS011;36278;47.952;21.714;2023-04-24T01:24:03;13.57;;;8.10;;
43070;SDS011;36278;47.952;21.714;2023-04-24T01:26:29;12.23;;;8.03;;
43070;SDS011;36278;47.952;21.714;2023-04-24T01:28:55;11.50;;;7.67;;
43070;SDS011;36278;47.952;21.714;2023-04-24T01:31:21;10.30;;;7.70;;
43070;SDS011;36278;47.952;21.714;2023-04-24T01:33:47;11.93;;;7.23;;
43070;SDS011;36278;47.952;21.714;2023-04-24T01:36:13;16.47;;;8.43;;
43070;SDS011;36278;47.952;21.714;2023-04-24T01:38:39;11.97;;;7.70;;
43070;SDS011;36278;47.952;21.714;2023-04-24T01:41:04;10.83;;;7.57;;
43070;SDS011;36278;47.952;21.714;2023-04-24T01:43:30;12.33;;;7.60;;
43070;SDS011;36278;47.952;21.714;2023-04-24T01:45:56;12.17;;;8.47;;
43070;SDS011;36278;47.952;21.714;2023-04-24T01:48:22;13.60;;;8.13;;
43070;SDS011;36278;47.952;21.714;2023-04-24T01:50:47;11.20;;;7.83;;
43070;SDS011;36278;47.952;21.714;2023-04-24T01:53:13;11.20;;;8.10;;
43070;SDS011;36278;47.952;21.714;2023-04-24T01:55:38;11.93;;;8.10;;
43070;SDS011;36278;47.952;21.714;2023-04-24T01:58:04;11.30;;;7.37;;
43070;SDS011;36278;47.952;21.714;2023-04-24T02:00:29;14.13;;;7.47;;
43070;SDS011;36278;47.952;21.714;2023-04-24T02:02:55;13.17;;;8.03;;
43070;SDS011;36278;47.952;21.714;2023-04-24T02:05:20;11.47;;;7.60;;
43070;SDS011;36278;47.952;21.714;2023-04-24T02:07:46;11.77;;;8.00;;
43070;SDS011;36278;47.952;21.714;2023-04-24T02:10:11;14.13;;;7.70;;
43070;SDS011;36278;47.952;21.714;2023-04-24T02:12:37;12.50;;;8.57;;
43070;SDS011;36278;47.952;21.714;2023-04-24T02:15:02;13.20;;;8.60;;
43070;SDS011;36278;47.952;21.714;2023-04-24T02:17:28;14.37;;;8.10;;
43070;SDS011;36278;47.952;21.714;2023-04-24T02:19:54;14.40;;;8.53;;
43070;SDS011;36278;47.952;21.714;2023-04-24T02:22:19;12.50;;;7.60;;
43070;SDS011;36278;47.952;21.714;2023-04-24T02:24:45;15.10;;;9.00;;
43070;SDS011;36278;47.952;21.714;2023-04-24T02:27:10;11.23;;;8.43;;
43070;SDS011;36278;47.952;21.714;2023-04-24T02:29:36;14.80;;;8.70;;
43070;SDS011;36278;47.952;21.714;2023-04-24T02:32:02;14.03;;;8.97;;
43070;SDS011;36278;47.952;21.714;2023-04-24T02:34:27;20.17;;;8.83;;
43070;SDS011;36278;47.952;21.714;2023-04-24T02:36:53;12.27;;;8.73;;
43070;SDS011;36278;47.952;21.714;2023-04-24T02:39:21;13.27;;;9.73;;
43070;SDS011;36278;47.952;21.714;2023-04-24T02:41:47;14.13;;;9.17;;
43070;SDS011;36278;47.952;21.714;2023-04-24T02:44:12;15.27;;;9.20;;
43070;SDS011;36278;47.952;21.714;2023-04-24T02:46:37;18.83;;;8.97;;
43070;SDS011;36278;47.952;21.714;2023-04-24T02:49:03;13.90;;;8.83;;
43070;SDS011;36278;47.952;21.714;2023-04-24T02:51:28;12.77;;;8.70;;
43070;SDS011;36278;47.952;21.714;2023-04-24T02:53:54;11.93;;;8.53;;
43070;SDS011;36278;47.952;21.714;2023-04-24T02:56:20;13.23;;;8.23;;
43070;SDS011;36278;47.952;21.714;2023-04-24T02:58:45;18.10;;;8.30;;
43070;SDS011;36278;47.952;21.714;2023-04-24T03:01:11;13.07;;;8.53;;
43070;SDS011;36278;47.952;21.714;2023-04-24T03:03:37;12.47;;;8.97;;
43070;SDS011;36278;47.952;21.714;2023-04-24T03:06:03;11.73;;;9.30;;
43070;SDS011;36278;47.952;21.714;2023-04-24T03:08:30;14.13;;;9.13;;
43070;SDS011;36278;47.952;21.714;2023-04-24T03:10:56;13.30;;;10.53;;
43070;SDS011;36278;47.952;21.714;2023-04-24T03:13:22;15.90;;;10.03;;
43070;SDS011;36278;47.952;21.714;2023-04-24T03:15:47;13.33;;;9.20;;
43070;SDS011;36278;47.952;21.714;2023-04-24T03:18:13;13.80;;;9.53;;
43070;SDS011;36278;47.952;21.714;2023-04-24T03:20:38;13.23;;;9.70;;
43070;SDS011;36278;47.952;21.714;2023-04-24T03:23:04;13.63;;;9.13;;
43070;SDS011;36278;47.952;21.714;2023-04-24T03:25:32;12.20;;;9.33;;
43070;SDS011;36278;47.952;21.714;2023-04-24T03:27:58;13.70;;;9.37;;
43070;SDS011;36278;47.952;21.714;2023-04-24T03:30:23;14.83;;;10.03;;
43070;SDS011;36278;47.952;21.714;2023-04-24T03:32:49;13.63;;;9.03;;
43070;SDS011;36278;47.952;21.714;2023-04-24T03:35:14;13.10;;;8.57;;
43070;SDS011;36278;47.952;21.714;2023-04-24T03:37:40;14.30;;;9.33;;
43070;SDS011;36278;47.952;21.714;2023-04-24T03:40:06;16.73;;;9.50;;
43070;SDS011;36278;47.952;21.714;2023-04-24T03:42:32;11.93;;;8.90;;
43070;SDS011;36278;47.952;21.714;2023-04-24T03:44:57;13.17;;;9.13;;
43070;SDS011;36278;47.952;21.714;2023-04-24T03:47:23;13.17;;;8.80;;
43070;SDS011;36278;47.952;21.714;2023-04-24T03:49:48;14.80;;;8.93;;
43070;SDS011;36278;47.952;21.714;2023-04-24T03:52:14;14.47;;;9.17;;
43070;SDS011;36278;47.952;21.714;2023-04-24T03:54:39;12.27;;;9.40;;
43070;SDS011;36278;47.952;21.714;2023-04-24T03:57:05;15.70;;;9.63;;
43070;SDS011;36278;47.952;21.714;2023-04-24T03:59:30;13.97;;;9.30;;
43070;SDS011;36278;47.952;21.714;2023-04-24T04:01:56;13.43;;;9.43;;
43070;SDS011;36278;47.952;21.714;2023-04-24T04:04:21;12.53;;;8.60;;
43070;SDS011;36278;47.952;21.714;2023-04-24T04:06:47;11.73;;;8.13;;
43070;SDS011;36278;47.952;21.714;2023-04-24T04:09:13;15.53;;;9.03;;
43070;SDS011;36278;47.952;21.714;2023-04-24T04:11:38;15.70;;;10.33;;
43070;SDS011;36278;47.952;21.714;2023-04-24T04:14:04;12.17;;;8.73;;
43070;SDS011;36278;47.952;21.714;2023-04-24T04:16:30;14.33;;;9.17;;
43070;SDS011;36278;47.952;21.714;2023-04-24T04:18:55;17.37;;;9.80;;
43070;SDS011;36278;47.952;21.714;2023-04-24T04:21:21;10.87;;;8.90;;
43070;SDS011;36278;47.952;21.714;2023-04-24T04:23:46;15.90;;;9.33;;
43070;SDS011;36278;47.952;21.714;2023-04-24T04:26:13;13.97;;;9.03;;
43070;SDS011;36278;47.952;21.714;2023-04-24T04:28:38;11.73;;;9.30;;
43070;SDS011;36278;47.952;21.714;2023-04-24T04:31:04;13.57;;;9.17;;
43070;SDS011;36278;47.952;21.714;2023-04-24T04:33:30;14.93;;;9.50;;
43070;SDS011;36278;47.952;21.714;2023-04-24T04:35:56;11.17;;;8.17;;
43070;SDS011;36278;47.952;21.714;2023-04-24T04:38:22;11.73;;;8.60;;
43070;SDS011;36278;47.952;21.714;2023-04-24T04:40:48;15.43;;;8.77;;
43070;SDS011;36278;47.952;21.714;2023-04-24T04:43:13;12.63;;;8.33;;
43070;SDS011;36278;47.952;21.714;2023-04-24T04:45:40;13.27;;;8.30;;
43070;SDS011;36278;47.952;21.714;2023-04-24T04:48:06;14.93;;;8.83;;
43070;SDS011;36278;47.952;21.714;2023-04-24T04:50:37;17.03;;;9.27;;
43070;SDS011;36278;47.952;21.714;2023-04-24T04:53:03;13.43;;;8.67;;
43070;SDS011;36278;47.952;21.714;2023-04-24T04:55:29;19.50;;;9.30;;
43070;SDS011;36278;47.952;21.714;2023-04-24T04:57:55;12.33;;;8.33;;
43070;SDS011;36278;47.952;21.714;2023-04-24T05:00:21;14.27;;;8.43;;
43070;SDS011;36278;47.952;21.714;2023-04-24T05:02:47;11.97;;;8.27;;
43070;SDS011;36278;47.952;21.714;2023-04-24T05:05:12;14.57;;;8.70;;
43070;SDS011;36278;47.952;21.714;2023-04-24T05:07:38;13.33;;;8.27;;
43070;SDS011;36278;47.952;21.714;2023-04-24T05:10:03;11.50;;;8.70;;
43070;SDS011;36278;47.952;21.714;2023-04-24T05:12:29;10.77;;;8.07;;
43070;SDS011;36278;47.952;21.714;2023-04-24T05:14:55;14.53;;;8.23;;
43070;SDS011;36278;47.952;21.714;2023-04-24T05:17:20;15.43;;;9.00;;
43070;SDS011;36278;47.952;21.714;2023-04-24T05:19:45;9.97;;;7.53;;
43070;SDS011;36278;47.952;21.714;2023-04-24T05:22:11;11.60;;;7.73;;
43070;SDS011;36278;47.952;21.714;2023-04-24T05:24:37;18.37;;;8.73;;
43070;SDS011;36278;47.952;21.714;2023-04-24T05:27:03;14.87;;;9.60;;
43070;SDS011;36278;47.952;21.714;2023-04-24T05:29:32;15.70;;;8.73;;
43070;SDS011;36278;47.952;21.714;2023-04-24T05:31:58;11.37;;;8.40;;
43070;SDS011;36278;47.952;21.714;2023-04-24T05:34:24;14.90;;;8.40;;
43070;SDS011;36278;47.952;21.714;2023-04-24T05:36:50;14.00;;;9.03;;
43070;SDS011;36278;47.952;21.714;2023-04-24T05:39:16;16.43;;;9.43;;
43070;SDS011;36278;47.952;21.714;2023-04-24T05:41:41;17.87;;;9.00;;
43070;SDS011;36278;47.952;21.714;2023-04-24T05:44:07;14.40;;;9.00;;
43070;SDS011;36278;47.952;21.714;2023-04-24T05:46:32;15.03;;;9.40;;
43070;SDS011;36278;47.952;21.714;2023-04-24T05:48:58;17.60;;;9.27;;
43070;SDS011;36278;47.952;21.714;2023-04-24T05:51:23;14.63;;;9.87;;
43070;SDS011;36278;47.952;21.714;2023-04-24T05:53:49;20.40;;;9.00;;
43070;SDS011;36278;47.952;21.714;2023-04-24T05:56:15;18.87;;;11.30;;
43070;SDS011;36278;47.952;21.714;2023-04-24T05:58:41;16.20;;;8.77;;
43070;SDS011;36278;47.952;21.714;2023-04-24T06:01:07;15.20;;;8.53;;
43070;SDS011;36278;47.952;21.714;2023-04-24T06:03:32;15.30;;;8.53;;
43070;SDS011;36278;47.952;21.714;2023-04-24T06:05:58;16.67;;;9.27;;
43070;SDS011;36278;47.952;21.714;2023-04-24T06:08:24;11.73;;;8.33;;
43070;SDS011;36278;47.952;21.714;2023-04-24T06:10:49;12.33;;;7.93;;
43070;SDS011;36278;47.952;21.714;2023-04-24T06:13:15;16.23;;;8.13;;
43070;SDS011;36278;47.952;21.714;2023-04-24T06:15:41;21.17;;;9.53;;
43070;SDS011;36278;47.952;21.714;2023-04-24T06:18:07;14.20;;;8.30;;
43070;SDS011;36278;47.952;21.714;2023-04-24T06:20:35;15.33;;;7.90;;
43070;SDS011;36278;47.952;21.714;2023-04-24T06:23:00;16.70;;;8.60;;
43070;SDS011;36278;47.952;21.714;2023-04-24T06:25:26;14.43;;;9.17;;
43070;SDS011;36278;47.952;21.714;2023-04-24T06:27:52;13.47;;;8.47;;
43070;SDS011;36278;47.952;21.714;2023-04-24T06:30:19;12.30;;;8.17;;
43070;SDS011;36278;47.952;21.714;2023-04-24T06:32:44;13.03;;;8.60;;
43070;SDS011;36278;47.952;21.714;2023-04-24T06:35:10;13.00;;;8.93;;
43070;SDS011;36278;47.952;21.714;2023-04-24T06:37:38;14.10;;;8.80;;
43070;SDS011;36278;47.952;21.714;2023-04-24T06:40:05;13.77;;;8.37;;
43070;SDS011;36278;47.952;21.714;2023-04-24T06:42:31;12.87;;;8.17;;
43070;SDS011;36278;47.952;21.714;2023-04-24T06:44:56;12.90;;;7.40;;
43070;SDS011;36278;47.952;21.714;2023-04-24T06:47:22;14.60;;;7.60;;
43070;SDS011;36278;47.952;21.714;2023-04-24T06:49:47;11.00;;;7.40;;
43070;SDS011;36278;47.952;21.714;2023-04-24T06:52:13;13.07;;;7.03;;
43070;SDS011;36278;47.952;21.714;2023-04-24T06:54:38;13.50;;;6.80;;
43070;SDS011;36278;47.952;21.714;2023-04-24T06:57:04;14.77;;;8.07;;
43070;SDS011;36278;47.952;21.714;2023-04-24T06:59:29;16.47;;;7.30;;
43070;SDS011;36278;47.952;21.714;2023-04-24T07:01:55;10.97;;;6.60;;
43070;SDS011;36278;47.952;21.714;2023-04-24T07:04:22;10.17;;;6.80;;
43070;SDS011;36278;47.952;21.714;2023-04-24T07:06:49;13.20;;;6.70;;
43070;SDS011;36278;47.952;21.714;2023-04-24T07:09:16;14.70;;;5.83;;
43070;SDS011;36278;47.952;21.714;2023-04-24T07:11:43;7.77;;;5.17;;
43070;SDS011;36278;47.952;21.714;2023-04-24T07:14:09;10.67;;;5.00;;
43070;SDS011;36278;47.952;21.714;2023-04-24T07:16:35;8.80;;;5.00;;
43070;SDS011;36278;47.952;21.714;2023-04-24T07:19:00;9.33;;;4.97;;
43070;SDS011;36278;47.952;21.714;2023-04-24T07:21:26;7.53;;;4.90;;
43070;SDS011;36278;47.952;21.714;2023-04-24T07:23:52;10.87;;;5.70;;
43070;SDS011;36278;47.952;21.714;2023-04-24T07:26:18;6.97;;;4.73;;
43070;SDS011;36278;47.952;21.714;2023-04-24T07:28:44;8.47;;;4.53;;
43070;SDS011;36278;47.952;21.714;2023-04-24T07:31:10;7.87;;;4.20;;
43070;SDS011;36278;47.952;21.714;2023-04-24T07:33:36;6.97;;;4.77;;
43070;SDS011;36278;47.952;21.714;2023-04-24T07:36:02;8.63;;;4.27;;
43070;SDS011;36278;47.952;21.714;2023-04-24T07:38:29;7.67;;;4.30;;
43070;SDS011;36278;47.952;21.714;2023-04-24T07:40:55;7.97;;;4.50;;
43070;SDS011;36278;47.952;21.714;2023-04-24T07:43:22;6.97;;;4.53;;
43070;SDS011;36278;47.952;21.714;2023-04-24T07:45:49;8.60;;;3.80;;
43070;SDS011;36278;47.952;21.714;2023-04-24T07:48:15;6.47;;;4.17;;
43070;SDS011;36278;47.952;21.714;2023-04-24T07:50:42;8.00;;;4.40;;
43070;SDS011;36278;47.952;21.714;2023-04-24T07:53:08;8.97;;;4.00;;
43070;SDS011;36278;47.952;21.714;2023-04-24T07:55:34;5.40;;;3.90;;
43070;SDS011;36278;47.952;21.714;2023-04-24T07:58:00;9.47;;;4.10;;
43070;SDS011;36278;47.952;21.714;2023-04-24T08:00:25;8.97;;;4.33;;
43070;SDS011;36278;47.952;21.714;2023-04-24T08:02:51;8.10;;;4.03;;
43070;SDS011;36278;47.952;21.714;2023-04-24T08:05:16;5.80;;;3.77;;
43070;SDS011;36278;47.952;21.714;2023-04-24T08:07:42;9.90;;;4.20;;
43070;SDS011;36278;47.952;21.714;2023-04-24T08:10:09;5.87;;;4.13;;
43070;SDS011;36278;47.952;21.714;2023-04-24T08:12:36;6.90;;;3.90;;
43070;SDS011;36278;47.952;21.714;2023-04-24T08:15:02;10.90;;;4.30;;
43070;SDS011;36278;47.952;21.714;2023-04-24T08:17:29;8.03;;;4.00;;
43070;SDS011;36278;47.952;21.714;2023-04-24T08:19:54;10.13;;;4.00;;
43070;SDS011;36278;47.952;21.714;2023-04-24T08:22:26;7.23;;;4.23;;
43070;SDS011;36278;47.952;21.714;2023-04-24T08:24:55;9.10;;;4.33;;
43070;SDS011;36278;47.952;21.714;2023-04-24T08:27:22;7.20;;;4.43;;
43070;SDS011;36278;47.952;21.714;2023-04-24T08:29:48;12.53;;;4.23;;
43070;SDS011;36278;47.952;21.714;2023-04-24T08:32:13;8.63;;;4.55;;
43070;SDS011;36278;47.952;21.714;2023-04-24T08:34:39;12.00;;;3.73;;
43070;SDS011;36278;47.952;21.714;2023-04-24T08:37:04;9.23;;;3.85;;
43070;SDS011;36278;47.952;21.714;2023-04-24T08:39:30;8.50;;;3.90;;
43070;SDS011;36278;47.952;21.714;2023-04-24T08:41:56;7.33;;;4.30;;
43070;SDS011;36278;47.952;21.714;2023-04-24T08:44:21;6.20;;;3.80;;
43070;SDS011;36278;47.952;21.714;2023-04-24T08:46:47;6.13;;;3.90;;
43070;SDS011;36278;47.952;21.714;2023-04-24T08:49:14;10.17;;;4.00;;
43070;SDS011;36278;47.952;21.714;2023-04-24T08:51:43;5.73;;;4.13;;
43070;SDS011;36278;47.952;21.714;2023-04-24T08:54:10;6.60;;;4.13;;
43070;SDS011;36278;47.952;21.714;2023-04-24T08:56:37;6.05;;;3.83;;
43070;SDS011;36278;47.952;21.714;2023-04-24T08:59:05;8.27;;;4.13;;
43070;SDS011;36278;47.952;21.714;2023-04-24T09:01:32;110.05;;;19.80;;
43070;SDS011;36278;47.952;21.714;2023-04-24T09:04:02;7.22;;;4.10;;
43070;SDS011;36278;47.952;21.714;2023-04-24T09:06:28;9.60;;;4.55;;
43070;SDS011;36278;47.952;21.714;2023-04-24T09:08:55;10.68;;;4.15;;
43070;SDS011;36278;47.952;21.714;2023-04-24T09:11:24;7.40;;;4.05;;
43070;SDS011;36278;47.952;21.714;2023-04-24T09:13:50;7.55;;;3.80;;
43070;SDS011;36278;47.952;21.714;2023-04-24T09:16:16;10.23;;;3.47;;
43070;SDS011;36278;47.952;21.714;2023-04-24T09:18:43;5.75;;;3.97;;
43070;SDS011;36278;47.952;21.714;2023-04-24T09:21:09;28.00;;;7.53;;
43070;SDS011;36278;47.952;21.714;2023-04-24T09:23:34;8.50;;;4.45;;
43070;SDS011;36278;47.952;21.714;2023-04-24T09:26:01;7.95;;;4.05;;
43070;SDS011;36278;47.952;21.714;2023-04-24T09:28:31;7.85;;;3.90;;
43070;SDS011;36278;47.952;21.714;2023-04-24T09:33:28;12.30;;;4.13;;
43070;SDS011;36278;47.952;21.714;2023-04-24T09:35:54;10.52;;;3.92;;
43070;SDS011;36278;47.952;21.714;2023-04-24T09:38:42;6.45;;;3.70;;
43070;SDS011;36278;47.952;21.714;2023-04-24T09:41:07;11.80;;;3.80;;
43070;SDS011;36278;47.952;21.714;2023-04-24T09:43:38;9.80;;;4.15;;
43070;SDS011;36278;47.952;21.714;2023-04-24T09:46:05;7.82;;;4.22;;
43070;SDS011;36278;47.952;21.714;2023-04-24T09:48:32;15.10;;;4.78;;
43070;SDS011;36278;47.952;21.714;2023-04-24T09:51:03;8.98;;;3.75;;
43070;SDS011;36278;47.952;21.714;2023-04-24T09:53:32;6.53;;;4.00;;
43070;SDS011;36278;47.952;21.714;2023-04-24T09:56:08;14.10;;;4.50;;
43070;SDS011;36278;47.952;21.714;2023-04-24T09:58:35;7.10;;;4.20;;
43070;SDS011;36278;47.952;21.714;2023-04-24T10:01:01;11.35;;;3.90;;
43070;SDS011;36278;47.952;21.714;2023-04-24T10:03:31;11.75;;;3.70;;
43070;SDS011;36278;47.952;21.714;2023-04-24T10:05:58;9.20;;;3.97;;
43070;SDS011;36278;47.952;21.714;2023-04-24T10:08:25;8.93;;;3.72;;
43070;SDS011;36278;47.952;21.714;2023-04-24T10:10:51;9.13;;;3.90;;
43070;SDS011;36278;47.952;21.714;2023-04-24T10:13:18;11.17;;;3.40;;
43070;SDS011;36278;47.952;21.714;2023-04-24T10:15:44;15.43;;;4.63;;
43070;SDS011;36278;47.952;21.714;2023-04-24T10:18:12;12.57;;;4.70;;
43070;SDS011;36278;47.952;21.714;2023-04-24T10:20:38;8.43;;;4.30;;
43070;SDS011;36278;47.952;21.714;2023-04-24T10:23:05;10.93;;;4.23;;
43070;SDS011;36278;47.952;21.714;2023-04-24T10:25:33;15.30;;;4.50;;
43070;SDS011;36278;47.952;21.714;2023-04-24T10:28:02;13.40;;;4.60;;
43070;SDS011;36278;47.952;21.714;2023-04-24T10:30:29;9.67;;;4.30;;
43070;SDS011;36278;47.952;21.714;2023-04-24T10:33:00;7.10;;;3.50;;
43070;SDS011;36278;47.952;21.714;2023-04-24T10:35:31;8.37;;;4.43;;
43070;SDS011;36278;47.952;21.714;2023-04-24T10:37:59;10.77;;;4.63;;
43070;SDS011;36278;47.952;21.714;2023-04-24T10:40:31;7.63;;;3.75;;
43070;SDS011;36278;47.952;21.714;2023-04-24T10:42:59;9.30;;;3.77;;
43070;SDS011;36278;47.952;21.714;2023-04-24T10:45:27;16.20;;;3.97;;
43070;SDS011;36278;47.952;21.714;2023-04-24T10:50:23;8.67;;;4.03;;
43070;SDS011;36278;47.952;21.714;2023-04-24T10:52:50;8.53;;;3.80;;
43070;SDS011;36278;47.952;21.714;2023-04-24T10:55:39;6.77;;;4.00;;
43070;SDS011;36278;47.952;21.714;2023-04-24T10:58:05;20.67;;;4.47;;
43070;SDS011;36278;47.952;21.714;2023-04-24T11:00:31;9.97;;;4.97;;
43070;SDS011;36278;47.952;21.714;2023-04-24T11:02:57;9.53;;;4.93;;
43070;SDS011;36278;47.952;21.714;2023-04-24T11:05:36;10.13;;;4.47;;
43070;SDS011;36278;47.952;21.714;2023-04-24T11:08:21;7.55;;;4.50;;
43070;SDS011;36278;47.952;21.714;2023-04-24T11:10:55;10.67;;;4.33;;
43070;SDS011;36278;47.952;21.714;2023-04-24T11:13:26;8.03;;;5.23;;
43070;SDS011;36278;47.952;21.714;2023-04-24T11:16:12;6.60;;;5.03;;
43070;SDS011;36278;47.952;21.714;2023-04-24T11:18:45;9.43;;;4.93;;
43070;SDS011;36278;47.952;21.714;2023-04-24T11:21:11;17.67;;;5.03;;
43070;SDS011;36278;47.952;21.714;2023-04-24T11:23:38;11.13;;;5.13;;
43070;SDS011;36278;47.952;21.714;2023-04-24T11:26:11;16.70;;;5.47;;
43070;SDS011;36278;47.952;21.714;2023-04-24T11:28:49;8.07;;;5.07;;
43070;SDS011;36278;47.952;21.714;2023-04-24T11:31:35;12.87;;;4.50;;
43070;SDS011;36278;47.952;21.714;2023-04-24T11:34:08;7.27;;;4.03;;
43070;SDS011;36278;47.952;21.714;2023-04-24T11:36:40;5.53;;;3.50;;
43070;SDS011;36278;47.952;21.714;2023-04-24T11:39:08;6.97;;;3.47;;
43070;SDS011;36278;47.952;21.714;2023-04-24T11:41:35;4.97;;;3.90;;
43070;SDS011;36278;47.952;21.714;2023-04-24T11:44:01;9.27;;;4.07;;
43070;SDS011;36278;47.952;21.714;2023-04-24T11:46:29;6.07;;;3.60;;
43070;SDS011;36278;47.952;21.714;2023-04-24T11:48:56;8.73;;;3.70;;
43070;SDS011;36278;47.952;21.714;2023-04-24T11:51:22;4.23;;;3.50;;
43070;SDS011;36278;47.952;21.714;2023-04-24T11:53:50;9.53;;;3.90;;
43070;SDS011;36278;47.952;21.714;2023-04-24T11:56:19;7.57;;;3.77;;
43070;SDS011;36278;47.952;21.714;2023-04-24T11:58:47;7.80;;;3.63;;
43070;SDS011;36278;47.952;21.714;2023-04-24T12:01:13;6.10;;;3.77;;
43070;SDS011;36278;47.952;21.714;2023-04-24T12:03:39;7.60;;;3.97;;
43070;SDS011;36278;47.952;21.714;2023-04-24T12:06:08;5.27;;;4.03;;
43070;SDS011;36278;47.952;21.714;2023-04-24T12:08:35;8.30;;;4.30;;
43070;SDS011;36278;47.952;21.714;2023-04-24T12:11:02;8.97;;;4.43;;
43070;SDS011;36278;47.952;21.714;2023-04-24T12:13:29;8.23;;;4.50;;
43070;SDS011;36278;47.952;21.714;2023-04-24T12:15:56;13.03;;;4.50;;
43070;SDS011;36278;47.952;21.714;2023-04-24T12:18:23;5.20;;;4.50;;
43070;SDS011;36278;47.952;21.714;2023-04-24T12:20:48;6.13;;;4.13;;
43070;SDS011;36278;47.952;21.714;2023-04-24T12:23:14;7.27;;;4.20;;
43070;SDS011;36278;47.952;21.714;2023-04-24T12:25:40;6.57;;;4.10;;
43070;SDS011;36278;47.952;21.714;2023-04-24T12:30:32;4.50;;;3.70;;
43070;SDS011;36278;47.952;21.714;2023-04-24T12:33:00;5.07;;;3.23;;
43070;SDS011;36278;47.952;21.714;2023-04-24T12:35:28;4.70;;;3.77;;
43070;SDS011;36278;47.952;21.714;2023-04-24T12:37:55;7.37;;;3.93;;
43070;SDS011;36278;47.952;21.714;2023-04-24T12:40:21;7.87;;;3.33;;
43070;SDS011;36278;47.952;21.714;2023-04-24T12:42:50;5.67;;;3.70;;
43070;SDS011;36278;47.952;21.714;2023-04-24T12:45:19;4.70;;;3.40;;
43070;SDS011;36278;47.952;21.714;2023-04-24T12:47:45;4.00;;;3.43;;
43070;SDS011;36278;47.952;21.714;2023-04-24T12:50:12;8.83;;;6.40;;
43070;SDS011;36278;47.952;21.714;2023-04-24T12:52:40;6.80;;;4.47;;
43070;SDS011;36278;47.952;21.714;2023-04-24T12:55:07;9.27;;;5.83;;
43070;SDS011;36278;47.952;21.714;2023-04-24T12:57:34;9.53;;;5.80;;
43070;SDS011;36278;47.952;21.714;2023-04-24T13:00:01;7.50;;;6.30;;
43070;SDS011;36278;47.952;21.714;2023-04-24T13:02:29;9.90;;;7.23;;
43070;SDS011;36278;47.952;21.714;2023-04-24T13:04:57;9.90;;;7.47;;
43070;SDS011;36278;47.952;21.714;2023-04-24T13:07:23;7.93;;;7.10;;
43070;SDS011;36278;47.952;21.714;2023-04-24T13:09:49;9.23;;;7.13;;
43070;SDS011;36278;47.952;21.714;2023-04-24T13:12:16;10.17;;;7.23;;
43070;SDS011;36278;47.952;21.714;2023-04-24T13:14:42;8.60;;;7.70;;
43070;SDS011;36278;47.952;21.714;2023-04-24T13:17:07;29.73;;;26.53;;
43070;SDS011;36278;47.952;21.714;2023-04-24T13:19:38;11.30;;;8.10;;
43070;SDS011;36278;47.952;21.714;2023-04-24T13:22:04;10.17;;;7.83;;
43070;SDS011;36278;47.952;21.714;2023-04-24T13:24:31;8.90;;;6.87;;
43070;SDS011;36278;47.952;21.714;2023-04-24T13:26:57;9.87;;;7.70;;
43070;SDS011;36278;47.952;21.714;2023-04-24T13:29:24;10.07;;;8.10;;
43070;SDS011;36278;47.952;21.714;2023-04-24T13:31:50;13.40;;;7.50;;
43070;SDS011;36278;47.952;21.714;2023-04-24T13:34:17;10.67;;;8.17;;
43070;SDS011;36278;47.952;21.714;2023-04-24T13:36:43;11.77;;;8.10;;
43070;SDS011;36278;47.952;21.714;2023-04-24T13:39:10;9.70;;;8.40;;
43070;SDS011;36278;47.952;21.714;2023-04-24T13:41:36;11.07;;;9.07;;
43070;SDS011;36278;47.952;21.714;2023-04-24T13:44:02;10.47;;;8.40;;
43070;SDS011;36278;47.952;21.714;2023-04-24T13:46:28;11.43;;;8.77;;
43070;SDS011;36278;47.952;21.714;2023-04-24T13:48:54;9.47;;;8.27;;
43070;SDS011;36278;47.952;21.714;2023-04-24T13:51:20;14.43;;;8.17;;
43070;SDS011;36278;47.952;21.714;2023-04-24T13:53:46;11.20;;;8.20;;
43070;SDS011;36278;47.952;21.714;2023-04-24T13:56:11;13.60;;;8.90;;
43070;SDS011;36278;47.952;21.714;2023-04-24T13:58:38;10.37;;;9.20;;
43070;SDS011;36278;47.952;21.714;2023-04-24T14:01:04;11.27;;;9.33;;
43070;SDS011;36278;47.952;21.714;2023-04-24T14:03:30;10.43;;;9.33;;
43070;SDS011;36278;47.952;21.714;2023-04-24T14:05:56;14.73;;;10.00;;
43070;SDS011;36278;47.952;21.714;2023-04-24T14:08:21;14.50;;;10.60;;
43070;SDS011;36278;47.952;21.714;2023-04-24T14:10:47;11.10;;;9.27;;
43070;SDS011;36278;47.952;21.714;2023-04-24T14:13:12;12.60;;;10.33;;
43070;SDS011;36278;47.952;21.714;2023-04-24T14:15:38;11.27;;;10.17;;
43070;SDS011;36278;47.952;21.714;2023-04-24T14:18:03;12.13;;;10.40;;
43070;SDS011;36278;47.952;21.714;2023-04-24T14:20:29;13.17;;;10.17;;
43070;SDS011;36278;47.952;21.714;2023-04-24T14:22:55;12.83;;;10.10;;
43070;SDS011;36278;47.952;21.714;2023-04-24T14:25:24;11.50;;;9.90;;
43070;SDS011;36278;47.952;21.714;2023-04-24T14:27:49;10.40;;;9.03;;
43070;SDS011;36278;47.952;21.714;2023-04-24T14:30:15;13.77;;;9.50;;